Time;durP1;ratioP1;P1;durP2;ratioP2;P2;SDS_P1;SDS_P2;PMS_P1;PMS_P2;Temp;Humidity;BMP_temperature;BMP_pressure;BME280_temperature;BME280_humidity;BME280_pressure;Samples;Min_cycle;Max_cycle;Signal;HPM_P1;HPM_P2
2023/10/21 00:00:19;;;;;;;40.33;24.00;;;11.10;99.90;;;;;;5053536;28;20119;-65
2023/10/21 00:02:45;;;;;;;46.88;25.73;;;11.10;99.90;;;;;;5035524;28;20125;-65
2023/10/21 00:05:10;;;;;;;37.83;22.70;;;11.10;99.90;;;;;;5035448;28;20413;-65
2023/10/21 00:07:37;;;;;;;37.13;22.95;;;11.20;99.90;;;;;;5034867;28;20044;-65
2023/10/21 00:10:06;;;;;;;37.33;22.45;;;11.20;99.90;;;;;;5035674;28;20433;-65
2023/10/21 00:12:33;;;;;;;39.45;23.20;;;11.40;99.90;;;;;;5052282;28;20120;-65
2023/10/21 00:14:59;;;;;;;45.60;25.15;;;11.40;99.90;;;;;;5035309;28;20056;-65
2023/10/21 00:17:30;;;;;;;32.90;21.33;;;11.50;99.90;;;;;;5035062;28;20037;-65
2023/10/21 00:19:56;;;;;;;34.97;23.08;;;11.50;99.90;;;;;;5053031;28;20084;-65
2023/10/21 00:22:22;;;;;;;41.15;23.23;;;11.50;99.90;;;;;;5033683;28;20080;-65
2023/10/21 00:24:47;;;;;;;42.45;23.73;;;11.50;99.90;;;;;;5018151;28;20486;-66
2023/10/21 00:27:13;;;;;;;43.05;22.98;;;11.60;99.90;;;;;;5052574;28;20044;-65
2023/10/21 00:29:39;;;;;;;30.35;19.10;;;11.70;99.90;;;;;;5052521;28;20048;-65
2023/10/21 00:32:05;;;;;;;38.42;21.27;;;11.60;99.90;;;;;;5018758;28;20041;-65
2023/10/21 00:34:31;;;;;;;35.25;20.27;;;11.70;99.90;;;;;;5017486;28;20502;-65
2023/10/21 00:36:57;;;;;;;34.85;21.38;;;11.70;99.90;;;;;;5052592;28;20086;-66
2023/10/21 00:39:23;;;;;;;38.10;21.23;;;11.70;99.90;;;;;;5052931;28;20112;-65
2023/10/21 00:41:48;;;;;;;38.53;22.65;;;11.70;99.90;;;;;;5015604;28;20045;-66
2023/10/21 00:44:14;;;;;;;45.65;21.80;;;11.50;99.90;;;;;;5035532;28;20076;-65
2023/10/21 00:46:42;;;;;;;37.38;20.52;;;11.50;99.90;;;;;;5052254;28;20090;-65
2023/10/21 00:49:07;;;;;;;34.50;20.88;;;11.60;99.90;;;;;;5034712;28;20040;-65
2023/10/21 00:51:35;;;;;;;37.42;20.98;;;11.50;99.90;;;;;;5034165;28;20076;-65
2023/10/21 00:54:02;;;;;;;44.08;22.73;;;11.50;99.90;;;;;;5034768;28;20041;-66
2023/10/21 00:56:28;;;;;;;37.33;21.92;;;11.50;99.90;;;;;;5034409;28;20382;-65
2023/10/21 00:58:54;;;;;;;37.17;20.95;;;11.40;99.90;;;;;;5022640;28;20041;-65
2023/10/21 01:01:21;;;;;;;43.35;23.50;;;11.50;99.90;;;;;;5032754;28;20041;-65
2023/10/21 01:03:47;;;;;;;37.45;21.80;;;11.40;99.90;;;;;;5014010;28;20069;-65
2023/10/21 01:06:12;;;;;;;39.40;21.60;;;11.50;99.90;;;;;;5032659;28;20079;-66
2023/10/21 01:08:48;;;;;;;38.17;20.83;;;11.50;99.90;;;;;;5014194;28;20045;-66
2023/10/21 01:11:13;;;;;;;46.40;22.75;;;11.30;99.90;;;;;;5013697;28;20044;-66
2023/10/21 01:13:42;;;;;;;41.60;22.65;;;11.30;99.90;;;;;;5034025;28;20456;-65
2023/10/21 01:16:08;;;;;;;50.85;23.08;;;11.40;99.90;;;;;;5034409;28;20045;-66
2023/10/21 01:18:34;;;;;;;52.10;23.85;;;11.30;99.90;;;;;;5033595;28;20048;-65
2023/10/21 01:21:01;;;;;;;45.75;23.00;;;11.20;99.90;;;;;;5026030;28;20048;-65
2023/10/21 01:23:28;;;;;;;40.33;21.20;;;11.40;99.90;;;;;;5046988;28;20048;-66
2023/10/21 01:25:54;;;;;;;49.70;25.25;;;11.30;99.90;;;;;;5050584;28;20045;-66
2023/10/21 01:28:19;;;;;;;33.38;19.42;;;11.20;99.90;;;;;;5032456;28;20379;-66
2023/10/21 01:30:45;;;;;;;36.40;19.83;;;11.20;99.90;;;;;;5033052;28;20056;-66
2023/10/21 01:33:10;;;;;;;34.28;19.15;;;11.40;99.90;;;;;;5034411;28;20044;-66
2023/10/21 01:35:36;;;;;;;34.85;19.77;;;11.30;99.90;;;;;;5017436;28;20040;-66
2023/10/21 01:38:02;;;;;;;39.92;20.83;;;11.30;99.90;;;;;;5051529;28;20072;-66
2023/10/21 01:40:27;;;;;;;38.05;19.98;;;11.40;99.90;;;;;;5051478;28;20078;-66
2023/10/21 01:42:53;;;;;;;39.80;20.40;;;11.40;99.90;;;;;;5034255;28;20071;-66
2023/10/21 01:45:19;;;;;;;35.58;19.40;;;11.50;99.90;;;;;;5049811;28;20550;-65
2023/10/21 01:47:44;;;;;;;33.10;17.58;;;11.30;99.90;;;;;;5051352;28;20121;-65
2023/10/21 01:50:11;;;;;;;35.95;21.00;;;11.50;99.90;;;;;;5051555;28;20115;-66
2023/10/21 01:52:38;;;;;;;35.67;18.27;;;11.50;99.90;;;;;;5033248;28;20049;-66
2023/10/21 01:55:05;;;;;;;29.27;18.38;;;11.30;99.90;;;;;;5034268;28;20045;-66
2023/10/21 01:57:34;;;;;;;30.65;17.20;;;11.50;99.90;;;;;;5033377;28;20040;-65
2023/10/21 02:00:01;;;;;;;35.40;18.25;;;11.40;99.90;;;;;;5051154;28;20041;-65
2023/10/21 02:02:28;;;;;;;28.52;16.98;;;11.50;99.90;;;;;;5051776;28;20041;-65
2023/10/21 02:04:54;;;;;;;36.25;18.85;;;11.60;99.90;;;;;;5017177;28;20044;-65
2023/10/21 02:07:19;;;;;;;30.35;16.77;;;11.50;99.90;;;;;;5050547;28;20044;-66
2023/10/21 02:09:45;;;;;;;26.80;16.55;;;11.60;99.90;;;;;;5033512;28;20037;-66
2023/10/21 02:12:11;;;;;;;29.00;16.73;;;11.50;99.90;;;;;;5017248;28;20061;-66
2023/10/21 02:14:37;;;;;;;30.25;16.33;;;11.60;99.90;;;;;;5019953;28;20040;-66
2023/10/21 02:17:02;;;;;;;29.75;17.35;;;11.50;99.90;;;;;;4997930;28;20034;-66
2023/10/21 02:19:28;;;;;;;27.67;16.40;;;11.40;99.90;;;;;;4997432;28;20045;-66
2023/10/21 02:21:54;;;;;;;39.50;18.77;;;11.40;99.90;;;;;;5013512;28;20041;-66
2023/10/21 02:24:19;;;;;;;30.52;17.23;;;11.50;99.90;;;;;;4997820;28;20073;-66
2023/10/21 02:26:45;;;;;;;33.72;16.80;;;11.50;99.90;;;;;;5013044;28;20041;-66
2023/10/21 02:29:11;;;;;;;26.90;16.25;;;11.40;99.90;;;;;;5014051;28;20046;-66
2023/10/21 02:31:37;;;;;;;28.35;15.45;;;11.40;99.90;;;;;;5013464;28;20166;-66
2023/10/21 02:34:03;;;;;;;24.02;14.07;;;11.40;99.90;;;;;;5030971;28;20390;-66
2023/10/21 02:36:29;;;;;;;28.27;15.75;;;11.30;99.90;;;;;;5031413;28;20406;-66
2023/10/21 02:38:54;;;;;;;26.05;13.77;;;11.20;99.90;;;;;;5030609;28;20041;-66
2023/10/21 02:41:20;;;;;;;24.27;14.27;;;11.30;99.90;;;;;;5033282;28;20124;-66
2023/10/21 02:43:47;;;;;;;24.77;12.40;;;11.30;99.90;;;;;;5033359;28;20049;-66
2023/10/21 02:46:13;;;;;;;26.95;14.35;;;11.40;99.90;;;;;;5033556;28;20098;-66
2023/10/21 02:48:45;;;;;;;25.27;13.50;;;11.30;99.90;;;;;;5032547;28;20087;-66
2023/10/21 02:51:15;;;;;;;20.98;13.15;;;11.20;99.90;;;;;;5033412;28;20057;-66
2023/10/21 02:53:42;;;;;;;19.48;12.30;;;11.30;99.90;;;;;;5032595;28;20037;-66
2023/10/21 02:56:09;;;;;;;20.65;12.35;;;11.20;99.90;;;;;;5050723;28;20547;-66
2023/10/21 02:58:35;;;;;;;23.05;12.35;;;11.20;99.90;;;;;;5034043;28;20041;-66
2023/10/21 03:01:18;;;;;;;22.92;12.32;;;11.20;99.90;;;;;;5020646;28;20051;-66
2023/10/21 03:03:45;;;;;;;19.60;11.38;;;11.30;99.90;;;;;;5053931;28;20037;-66
2023/10/21 03:06:12;;;;;;;18.25;11.93;;;11.10;99.90;;;;;;5037091;28;20041;-66
2023/10/21 03:08:38;;;;;;;20.67;12.85;;;11.10;99.90;;;;;;5053696;28;20082;-66
2023/10/21 03:11:05;;;;;;;21.83;12.02;;;11.10;99.90;;;;;;5036393;28;20044;-65
2023/10/21 03:13:32;;;;;;;17.70;11.30;;;11.10;99.90;;;;;;5036370;28;20386;-66
2023/10/21 03:15:58;;;;;;;21.48;11.75;;;11.10;99.90;;;;;;5054288;28;20040;-66
2023/10/21 03:18:25;;;;;;;24.75;11.95;;;11.10;99.90;;;;;;5036271;28;20095;-66
2023/10/21 03:20:52;;;;;;;18.80;11.55;;;11.10;99.90;;;;;;5036458;28;20041;-66
2023/10/21 03:23:18;;;;;;;22.55;11.60;;;11.10;99.90;;;;;;5021909;28;20041;-66
2023/10/21 03:26:04;;;;;;;16.30;10.20;;;11.00;99.90;;;;;;5033950;28;20495;-66
2023/10/21 03:28:30;;;;;;;27.10;12.00;;;11.10;99.90;;;;;;5015877;28;20049;-66
2023/10/21 03:31:02;;;;;;;20.10;12.02;;;11.10;99.90;;;;;;5017005;28;20048;-66
2023/10/21 03:33:29;;;;;;;24.15;12.45;;;11.00;99.90;;;;;;5049551;28;20041;-66
2023/10/21 03:35:56;;;;;;;18.83;11.23;;;11.00;99.90;;;;;;5033072;28;20088;-66
2023/10/21 03:38:22;;;;;;;17.08;9.57;;;11.10;99.90;;;;;;5048641;28;20037;-66
2023/10/21 03:40:56;;;;;;;19.08;10.25;;;10.90;99.90;;;;;;5053844;28;20151;-66
2023/10/21 03:43:23;;;;;;;17.13;11.07;;;10.90;99.90;;;;;;5036375;28;20049;-66
2023/10/21 03:45:49;;;;;;;18.92;11.23;;;10.90;99.90;;;;;;5035954;28;20083;-66
2023/10/21 03:48:15;;;;;;;18.08;11.15;;;11.00;99.90;;;;;;5036365;28;20489;-66
2023/10/21 03:50:40;;;;;;;20.67;11.45;;;10.90;99.90;;;;;;5035256;28;20064;-65
2023/10/21 03:53:06;;;;;;;18.83;10.50;;;10.90;99.90;;;;;;5035451;28;20045;-66
2023/10/21 03:55:32;;;;;;;21.20;12.20;;;10.90;99.90;;;;;;5035654;28;20091;-66
2023/10/21 03:57:57;;;;;;;19.90;11.07;;;11.00;99.90;;;;;;5036191;28;20044;-65
2023/10/21 04:00:23;;;;;;;18.52;11.45;;;10.80;99.90;;;;;;5053588;28;20048;-65
2023/10/21 04:02:49;;;;;;;21.27;11.80;;;10.80;99.90;;;;;;5034864;28;20048;-66
2023/10/21 04:05:17;;;;;;;18.08;11.00;;;10.80;99.90;;;;;;5035250;28;20048;-66
2023/10/21 04:07:44;;;;;;;19.02;11.35;;;10.90;99.90;;;;;;5053358;28;20049;-66
2023/10/21 04:10:10;;;;;;;23.33;13.13;;;10.90;99.90;;;;;;5035783;28;20114;-66
2023/10/21 04:12:36;;;;;;;28.35;13.75;;;10.80;99.90;;;;;;5052515;28;20037;-66
2023/10/21 04:15:02;;;;;;;30.83;15.27;;;10.80;99.90;;;;;;5019727;28;20124;-66
2023/10/21 04:17:28;;;;;;;21.23;13.15;;;10.70;99.90;;;;;;5035728;28;20045;-66
2023/10/21 04:19:54;;;;;;;25.45;14.82;;;10.80;99.90;;;;;;5032240;28;20056;-66
2023/10/21 04:22:19;;;;;;;26.98;14.30;;;10.60;99.90;;;;;;5016276;28;20041;-66
2023/10/21 04:24:45;;;;;;;29.48;14.57;;;10.70;99.90;;;;;;5048239;28;20052;-66
2023/10/21 04:27:11;;;;;;;32.00;15.05;;;10.50;99.90;;;;;;5048464;28;20049;-66
2023/10/21 04:29:37;;;;;;;31.48;15.05;;;10.50;99.90;;;;;;5015179;28;20095;-66
2023/10/21 04:32:02;;;;;;;24.55;13.57;;;10.50;99.90;;;;;;5051628;28;20036;-66
2023/10/21 04:34:28;;;;;;;28.30;14.85;;;10.50;99.90;;;;;;5034415;28;20485;-66
2023/10/21 04:36:54;;;;;;;24.35;14.23;;;10.40;99.90;;;;;;5018892;28;20041;-65
2023/10/21 04:39:19;;;;;;;25.35;14.95;;;10.30;99.90;;;;;;5053115;28;20073;-65
2023/10/21 04:41:48;;;;;;;36.80;18.13;;;10.40;99.90;;;;;;5034239;28;20087;-65
2023/10/21 04:44:13;;;;;;;33.63;18.02;;;10.40;99.90;;;;;;5035318;28;20119;-66
2023/10/21 04:46:39;;;;;;;42.13;22.30;;;10.30;99.90;;;;;;5052091;28;20095;-66
2023/10/21 04:49:05;;;;;;;32.58;19.95;;;10.30;99.90;;;;;;5034600;28;20041;-65
2023/10/21 04:51:31;;;;;;;27.42;17.60;;;10.30;99.90;;;;;;5002326;28;20077;-65
2023/10/21 04:53:57;;;;;;;31.70;19.50;;;10.30;99.90;;;;;;5018594;28;20037;-65
2023/10/21 04:56:24;;;;;;;41.90;22.33;;;10.20;99.90;;;;;;5034484;28;20045;-65
2023/10/21 04:58:50;;;;;;;33.08;19.20;;;10.20;99.90;;;;;;5052397;28;20398;-66
2023/10/21 05:01:16;;;;;;;33.83;20.08;;;10.40;99.90;;;;;;5052189;28;20045;-66
2023/10/21 05:03:43;;;;;;;37.10;21.75;;;10.30;99.90;;;;;;5017814;28;20041;-65
2023/10/21 05:06:09;;;;;;;36.97;21.50;;;10.30;99.90;;;;;;5034928;28;20053;-65
2023/10/21 05:08:35;;;;;;;37.35;23.35;;;10.30;99.90;;;;;;5034004;28;20115;-66
2023/10/21 05:11:01;;;;;;;38.03;22.35;;;10.40;99.90;;;;;;5034672;28;20573;-65
2023/10/21 05:13:26;;;;;;;38.17;23.00;;;10.40;99.90;;;;;;5052043;28;20445;-65
2023/10/21 05:15:52;;;;;;;34.85;22.38;;;10.30;99.90;;;;;;5033707;28;20056;-65
2023/10/21 05:18:19;;;;;;;36.22;21.77;;;10.40;99.90;;;;;;5034637;28;20130;-65
2023/10/21 05:20:44;;;;;;;40.38;25.05;;;10.40;99.90;;;;;;5033735;28;20041;-65
2023/10/21 05:23:11;;;;;;;31.23;21.02;;;10.30;99.90;;;;;;5033993;28;20048;-65
2023/10/21 05:25:37;;;;;;;39.55;24.83;;;10.30;99.90;;;;;;5034004;28;20111;-65
2023/10/21 05:28:03;;;;;;;47.17;26.42;;;10.30;99.90;;;;;;5033869;28;20206;-65
2023/10/21 05:30:29;;;;;;;40.35;23.27;;;10.40;99.90;;;;;;5039675;28;20554;-65
2023/10/21 05:32:54;;;;;;;45.97;26.75;;;10.30;99.90;;;;;;5047611;28;20132;-65
2023/10/21 05:35:21;;;;;;;42.72;24.00;;;10.40;99.90;;;;;;5047583;28;20045;-66
2023/10/21 05:37:47;;;;;;;38.58;23.42;;;10.30;99.90;;;;;;5031265;28;20372;-66
2023/10/21 05:40:13;;;;;;;40.35;21.73;;;10.30;99.90;;;;;;5032476;28;20120;-66
2023/10/21 05:42:38;;;;;;;44.00;23.73;;;10.40;99.90;;;;;;5046912;28;20049;-66
2023/10/21 05:45:05;;;;;;;41.10;23.58;;;10.40;99.90;;;;;;5046898;28;20045;-65
2023/10/21 05:47:31;;;;;;;32.67;21.10;;;10.40;99.90;;;;;;5031614;28;20491;-65
2023/10/21 05:49:57;;;;;;;37.42;21.77;;;10.30;99.90;;;;;;5032649;28;20398;-66
2023/10/21 05:52:22;;;;;;;42.13;23.95;;;10.30;99.90;;;;;;5051255;28;20049;-66
2023/10/21 05:54:48;;;;;;;31.35;18.50;;;10.40;99.90;;;;;;5051728;28;20040;-65
2023/10/21 05:57:14;;;;;;;36.35;20.33;;;10.50;99.90;;;;;;5034250;28;20036;-65
2023/10/21 05:59:39;;;;;;;31.40;21.10;;;10.50;99.90;;;;;;5032682;28;20494;-66
2023/10/21 06:02:05;;;;;;;37.45;20.95;;;10.40;99.90;;;;;;5052019;28;20048;-65
2023/10/21 06:04:32;;;;;;;32.88;20.33;;;10.50;99.90;;;;;;5051587;28;20056;-65
2023/10/21 06:06:57;;;;;;;30.75;20.83;;;10.40;99.90;;;;;;5017071;28;20036;-66
2023/10/21 06:09:25;;;;;;;34.40;20.17;;;10.50;99.90;;;;;;5033557;28;20394;-66
2023/10/21 06:11:51;;;;;;;42.72;22.85;;;10.40;99.90;;;;;;5049505;28;20041;-66
2023/10/21 06:14:20;;;;;;;42.35;22.85;;;10.40;99.90;;;;;;5051654;28;20060;-65
2023/10/21 06:16:45;;;;;;;36.83;23.08;;;10.40;99.90;;;;;;5031801;28;20040;-65
2023/10/21 06:19:11;;;;;;;38.28;23.77;;;10.50;99.90;;;;;;5033437;28;20481;-65
2023/10/21 06:21:37;;;;;;;35.78;21.40;;;10.50;99.90;;;;;;5033766;28;20045;-65
2023/10/21 06:24:03;;;;;;;36.05;21.90;;;10.50;99.90;;;;;;5033733;28;20056;-65
2023/10/21 06:26:33;;;;;;;32.25;21.25;;;10.50;99.90;;;;;;5024167;28;20056;-65
2023/10/21 06:28:59;;;;;;;33.15;20.33;;;10.50;99.90;;;;;;5028256;28;20041;-65
2023/10/21 06:31:26;;;;;;;37.15;20.77;;;10.40;99.90;;;;;;5033072;28;20040;-66
2023/10/21 06:33:53;;;;;;;37.58;22.02;;;10.40;99.90;;;;;;5034525;28;20124;-65
2023/10/21 06:36:19;;;;;;;36.22;21.58;;;10.60;99.90;;;;;;5009063;28;20128;-65
2023/10/21 06:38:45;;;;;;;34.05;21.05;;;10.50;99.90;;;;;;5026463;28;20565;-66
2023/10/21 06:41:11;;;;;;;32.38;19.75;;;10.60;99.90;;;;;;5022198;28;20116;-66
2023/10/21 06:43:37;;;;;;;36.53;20.63;;;10.60;99.90;;;;;;5033197;28;20107;-66
2023/10/21 06:46:03;;;;;;;33.58;20.73;;;10.60;99.90;;;;;;5037806;28;20055;-66
2023/10/21 06:48:29;;;;;;;34.08;20.98;;;10.70;99.90;;;;;;5028702;28;20048;-66
2023/10/21 06:50:56;;;;;;;38.95;20.52;;;10.60;99.90;;;;;;5005044;28;20096;-65
2023/10/21 06:53:21;;;;;;;34.50;21.23;;;10.60;99.90;;;;;;5032856;28;20719;-65
2023/10/21 06:55:49;;;;;;;35.05;20.52;;;10.60;99.90;;;;;;5032477;28;20055;-65
2023/10/21 06:58:14;;;;;;;32.55;18.35;;;10.70;99.90;;;;;;5015111;28;20033;-66
2023/10/21 07:00:40;;;;;;;35.95;20.95;;;10.70;99.90;;;;;;5017149;28;20474;-66
2023/10/21 07:03:07;;;;;;;26.42;17.65;;;10.70;99.90;;;;;;5022510;28;20045;-66
2023/10/21 07:05:33;;;;;;;24.15;17.08;;;10.80;99.90;;;;;;5022280;28;20394;-66
2023/10/21 07:07:58;;;;;;;36.40;19.73;;;10.80;99.90;;;;;;5023631;28;20098;-66
2023/10/21 07:10:26;;;;;;;26.80;17.75;;;10.80;99.90;;;;;;5032804;28;20381;-66
2023/10/21 07:12:52;;;;;;;26.65;17.83;;;10.80;99.90;;;;;;5015781;28;20505;-66
2023/10/21 07:15:19;;;;;;;29.05;18.60;;;10.90;99.90;;;;;;5017412;28;20053;-65
2023/10/21 07:17:44;;;;;;;26.08;17.27;;;10.90;99.90;;;;;;5018705;28;20037;-66
2023/10/21 07:20:11;;;;;;;29.80;19.17;;;10.90;99.90;;;;;;5040856;28;20068;-66
2023/10/21 07:22:37;;;;;;;28.30;16.95;;;11.00;99.90;;;;;;5020259;28;20049;-66
2023/10/21 07:25:03;;;;;;;30.85;19.27;;;10.90;99.90;;;;;;5025085;28;20053;-66
2023/10/21 07:27:29;;;;;;;32.03;18.48;;;11.00;99.90;;;;;;5032657;28;20056;-66
2023/10/21 07:29:55;;;;;;;33.75;19.25;;;11.10;99.90;;;;;;5047943;28;20045;-66
2023/10/21 07:32:22;;;;;;;34.35;19.95;;;11.20;99.90;;;;;;5051867;28;20067;-66
2023/10/21 07:34:48;;;;;;;31.88;19.20;;;11.10;99.90;;;;;;5048959;28;20052;-66
2023/10/21 07:37:13;;;;;;;31.23;19.73;;;11.20;99.90;;;;;;5014514;28;20391;-65
2023/10/21 07:39:39;;;;;;;32.15;20.00;;;11.20;99.90;;;;;;5025152;28;20048;-66
2023/10/21 07:42:05;;;;;;;34.35;20.13;;;11.30;99.90;;;;;;5021317;28;20119;-66
2023/10/21 07:44:31;;;;;;;29.45;18.27;;;11.30;99.90;;;;;;5010287;28;20149;-66
2023/10/21 07:46:56;;;;;;;25.70;16.40;;;11.30;99.90;;;;;;5027543;28;20033;-66
2023/10/21 07:49:23;;;;;;;33.90;18.80;;;11.50;99.90;;;;;;5013198;28;20049;-66
2023/10/21 07:51:49;;;;;;;32.67;19.60;;;11.30;99.90;;;;;;5020823;28;20517;-66
2023/10/21 07:54:15;;;;;;;32.35;19.83;;;11.50;99.90;;;;;;5016309;28;20037;-66
2023/10/21 07:56:45;;;;;;;36.53;20.95;;;11.50;99.90;;;;;;5032409;28;20044;-66
2023/10/21 07:59:11;;;;;;;36.90;20.10;;;11.40;99.90;;;;;;5046415;28;20071;-66
2023/10/21 08:01:37;;;;;;;28.83;18.50;;;11.50;99.90;;;;;;5019156;28;20130;-65
2023/10/21 08:04:03;;;;;;;29.13;18.40;;;11.60;99.90;;;;;;5032865;28;20049;-66
2023/10/21 08:06:29;;;;;;;30.58;18.80;;;11.70;99.90;;;;;;5018730;28;20049;-66
2023/10/21 08:08:55;;;;;;;31.08;19.05;;;11.70;99.90;;;;;;5016112;28;20788;-66
2023/10/21 08:11:21;;;;;;;28.70;16.50;;;11.60;99.90;;;;;;5023991;28;20045;-66
2023/10/21 08:13:47;;;;;;;25.13;15.93;;;11.70;99.90;;;;;;5027565;28;20049;-66
2023/10/21 08:16:13;;;;;;;31.92;16.95;;;11.80;99.90;;;;;;5027446;28;20041;-66
2023/10/21 08:18:39;;;;;;;27.95;18.80;;;11.80;99.90;;;;;;5018933;28;20485;-66
2023/10/21 08:21:05;;;;;;;26.65;16.90;;;11.80;99.90;;;;;;5015893;28;20041;-66
2023/10/21 08:23:31;;;;;;;25.80;17.08;;;12.00;99.90;;;;;;5030714;28;20049;-66
2023/10/21 08:25:57;;;;;;;21.50;14.55;;;12.00;99.90;;;;;;5001990;28;20049;-66
2023/10/21 08:28:24;;;;;;;25.55;14.65;;;12.00;99.90;;;;;;5014642;28;20132;-66
2023/10/21 08:30:49;;;;;;;24.42;15.30;;;12.10;99.90;;;;;;5011911;28;20080;-66
2023/10/21 08:33:16;;;;;;;26.52;15.55;;;12.10;99.90;;;;;;5028917;28;20115;-66
2023/10/21 08:35:42;;;;;;;23.65;14.45;;;12.20;99.90;;;;;;5016902;28;20056;-66
2023/10/21 08:38:08;;;;;;;22.95;14.55;;;12.20;99.90;;;;;;5025447;28;20045;-66
2023/10/21 08:40:38;;;;;;;19.92;13.82;;;12.40;99.90;;;;;;5030282;28;20045;-66
2023/10/21 08:43:04;;;;;;;22.83;13.70;;;12.30;99.90;;;;;;5020838;28;20033;-66
2023/10/21 08:46:26;;;;;;;25.10;15.45;;;12.40;99.90;;;;;;5020393;28;20051;-66
2023/10/21 08:48:52;;;;;;;21.55;13.52;;;12.50;99.90;;;;;;5028442;28;20040;-66
2023/10/21 08:51:20;;;;;;;21.48;14.60;;;12.40;99.90;;;;;;5048705;28;20517;-66
2023/10/21 08:53:47;;;;;;;25.67;15.23;;;12.50;99.90;;;;;;5017159;28;20042;-66
2023/10/21 08:56:14;;;;;;;20.75;14.63;;;12.60;99.90;;;;;;5033058;28;20099;-66
2023/10/21 08:58:41;;;;;;;20.83;14.23;;;12.50;99.90;;;;;;5029390;28;20048;-66
2023/10/21 09:01:07;;;;;;;21.15;12.25;;;12.50;99.90;;;;;;5031831;28;20093;-66
2023/10/21 09:03:33;;;;;;;18.42;12.38;;;12.60;99.90;;;;;;5015039;28;20053;-66
2023/10/21 09:06:13;;;;;;;19.25;12.40;;;12.80;99.90;;;;;;5018281;28;20064;-66
2023/10/21 09:08:43;;;;;;;18.23;11.70;;;12.70;99.90;;;;;;5042043;28;20045;-66
2023/10/21 09:11:10;;;;;;;17.17;11.88;;;12.70;99.90;;;;;;5034636;28;20105;-66
2023/10/21 09:13:38;;;;;;;15.88;11.82;;;12.80;99.90;;;;;;5012898;28;20356;-67
2023/10/21 09:16:34;;;;;;;18.00;11.75;;;12.80;99.90;;;;;;5033485;28;20040;-66
2023/10/21 09:19:04;;;;;;;19.92;10.73;;;12.90;99.90;;;;;;5015410;28;20045;-67
2023/10/21 09:21:36;;;;;;;15.10;9.35;;;12.90;99.90;;;;;;5023887;28;20482;-64
2023/10/21 09:24:07;;;;;;;15.30;9.20;;;13.20;99.90;;;;;;5045333;28;20044;-65
2023/10/21 09:26:37;;;;;;;15.82;9.63;;;13.10;99.90;;;;;;5014338;28;20090;-66
2023/10/21 09:29:12;;;;;;;15.15;9.60;;;13.20;99.90;;;;;;4999665;28;20116;-66
2023/10/21 09:31:48;;;;;;;19.55;8.82;;;13.40;99.90;;;;;;5035807;28;20052;-65
2023/10/21 09:34:31;;;;;;;12.57;8.23;;;13.30;99.90;;;;;;5026153;28;20088;-65
2023/10/21 09:36:58;;;;;;;14.80;7.90;;;13.50;99.90;;;;;;5009053;28;20116;-66
2023/10/21 09:39:26;;;;;;;12.63;7.93;;;13.60;99.90;;;;;;5030727;28;20089;-66
2023/10/21 09:41:52;;;;;;;14.18;8.68;;;13.50;99.90;;;;;;5017779;28;20053;-66
2023/10/21 09:44:18;;;;;;;11.73;7.50;;;13.50;99.90;;;;;;5033840;28;20048;-66
2023/10/21 09:46:45;;;;;;;15.07;7.97;;;13.50;99.90;;;;;;5051389;28;20405;-65
2023/10/21 09:49:13;;;;;;;12.68;7.13;;;13.60;99.90;;;;;;5034597;28;20519;-65
2023/10/21 09:52:00;;;;;;;11.02;7.13;;;13.70;99.90;;;;;;5020077;28;20487;-66
2023/10/21 09:54:55;;;;;;;11.18;7.53;;;13.70;99.90;;;;;;5014306;28;20433;-66
2023/10/21 09:57:22;;;;;;;11.27;6.80;;;13.50;99.90;;;;;;5014473;28;20033;-66
2023/10/21 09:59:49;;;;;;;12.43;7.07;;;13.60;99.90;;;;;;5014552;28;20072;-65
2023/10/21 10:02:15;;;;;;;9.68;6.55;;;13.50;99.90;;;;;;5014558;28;20120;-65
2023/10/21 10:04:42;;;;;;;10.60;6.25;;;13.60;99.90;;;;;;5013236;28;20502;-65
2023/10/21 10:07:09;;;;;;;11.80;6.38;;;13.60;99.90;;;;;;5015126;28;20061;-66
2023/10/21 10:09:36;;;;;;;9.93;5.70;;;13.60;99.90;;;;;;5018397;28;20541;-66
2023/10/21 10:12:37;;;;;;;10.50;6.35;;;13.60;99.90;;;;;;5016009;28;20127;-64
2023/10/21 10:15:27;;;;;;;11.63;5.53;;;13.50;99.90;;;;;;4974430;28;20054;-64
2023/10/21 10:17:53;;;;;;;11.10;6.07;;;13.50;99.90;;;;;;4999252;28;20061;-64
2023/10/21 10:20:27;;;;;;;9.70;6.47;;;13.60;99.90;;;;;;5034254;28;20033;-63
2023/10/21 10:23:07;;;;;;;12.65;5.95;;;13.60;99.90;;;;;;5032217;28;20069;-63
2023/10/21 10:25:34;;;;;;;9.88;5.40;;;13.60;99.90;;;;;;5033313;28;20049;-63
2023/10/21 10:28:05;;;;;;;11.60;4.45;;;13.50;99.90;;;;;;5017839;28;20045;-63
2023/10/21 10:30:35;;;;;;;7.30;3.15;;;13.60;99.90;;;;;;5017117;28;20402;-63
2023/10/21 10:33:12;;;;;;;14.30;3.50;;;13.40;99.90;;;;;;5001237;28;20121;-63
2023/10/21 10:35:42;;;;;;;4.63;2.40;;;13.40;99.90;;;;;;5035044;28;20041;-63
2023/10/21 10:38:25;;;;;;;5.05;2.80;;;13.50;99.90;;;;;;5017911;28;20069;-63
2023/10/21 10:41:15;;;;;;;6.13;2.67;;;13.50;99.90;;;;;;5013704;28;20089;-63
2023/10/21 10:43:45;;;;;;;6.18;3.38;;;13.60;99.90;;;;;;4997704;28;20134;-63
2023/10/21 10:46:19;;;;;;;8.05;3.53;;;13.60;99.90;;;;;;4997551;28;20038;-63
2023/10/21 10:48:46;;;;;;;6.28;3.33;;;13.60;99.90;;;;;;5015049;28;20038;-63
2023/10/21 10:51:19;;;;;;;6.55;2.78;;;13.50;99.90;;;;;;4997601;28;20115;-63
2023/10/21 10:53:59;;;;;;;8.38;3.90;;;13.60;99.90;;;;;;4996924;28;20048;-63
2023/10/21 10:56:39;;;;;;;7.57;3.88;;;13.60;99.90;;;;;;4998104;28;20052;-63
2023/10/21 10:59:05;;;;;;;6.75;3.33;;;13.60;99.90;;;;;;4998194;28;20387;-63
2023/10/21 11:01:31;;;;;;;6.95;3.20;;;13.70;99.90;;;;;;4996828;28;20046;-63
2023/10/21 11:03:58;;;;;;;7.40;3.42;;;13.60;99.90;;;;;;4998811;28;20108;-63
2023/10/21 11:06:28;;;;;;;5.53;2.75;;;13.60;99.90;;;;;;5017165;28;20055;-63
2023/10/21 11:08:54;;;;;;;8.88;3.60;;;13.70;99.90;;;;;;5016937;28;20089;-65
2023/10/21 11:11:20;;;;;;;5.70;3.00;;;13.50;99.90;;;;;;5017137;28;20076;-64
2023/10/21 11:13:46;;;;;;;6.97;2.83;;;13.50;99.90;;;;;;5016618;28;20041;-64
2023/10/21 11:16:11;;;;;;;6.82;3.55;;;13.50;99.90;;;;;;5016527;28;20460;-64
2023/10/21 11:18:38;;;;;;;7.47;3.78;;;13.50;99.90;;;;;;5012645;28;20124;-64
2023/10/21 11:21:05;;;;;;;5.18;3.20;;;13.50;99.90;;;;;;5016088;28;20076;-66
2023/10/21 11:23:30;;;;;;;6.13;2.95;;;13.60;99.90;;;;;;4997980;28;20033;-65
2023/10/21 11:25:58;;;;;;;6.82;3.60;;;13.70;99.90;;;;;;5017062;28;20525;-65
2023/10/21 11:28:25;;;;;;;6.60;3.30;;;13.60;99.90;;;;;;5033011;28;20037;-66
2023/10/21 11:30:52;;;;;;;5.32;2.78;;;13.80;99.90;;;;;;5016463;28;20045;-66
2023/10/21 11:33:18;;;;;;;11.50;3.47;;;13.60;99.90;;;;;;5027396;28;20088;-66
2023/10/21 11:35:45;;;;;;;9.50;3.22;;;13.70;99.90;;;;;;5009942;28;20557;-67
2023/10/21 11:38:16;;;;;;;4.80;2.70;;;13.70;99.90;;;;;;5029896;28;20033;-67
2023/10/21 11:40:44;;;;;;;4.60;2.30;;;13.70;99.90;;;;;;5004028;28;20073;-68
2023/10/21 11:43:13;;;;;;;6.03;2.55;;;13.80;99.90;;;;;;5013584;28;20183;-67
2023/10/21 11:45:39;;;;;;;5.82;2.25;;;13.70;99.90;;;;;;5015327;28;20064;-68
2023/10/21 11:48:09;;;;;;;7.40;3.35;;;13.80;99.90;;;;;;5015834;28;20171;-68
2023/10/21 11:50:42;;;;;;;4.53;2.53;;;13.80;99.90;;;;;;5018922;28;20142;-68
2023/10/21 11:53:09;;;;;;;5.57;2.50;;;13.70;99.90;;;;;;5019855;28;20084;-68
2023/10/21 12:38:56;;;;;;;7.55;2.38;;;14.00;99.90;;;;;;5031894;28;20481;-68
2023/10/21 12:41:26;;;;;;;4.18;2.28;;;14.00;99.90;;;;;;5014448;28;20041;-68
2023/10/21 12:43:55;;;;;;;4.10;1.83;;;14.10;99.90;;;;;;5011746;28;20045;-68
2023/10/21 12:46:24;;;;;;;7.07;2.10;;;14.10;99.90;;;;;;5012749;28;20051;-68
2023/10/21 12:48:54;;;;;;;3.70;1.77;;;14.20;99.90;;;;;;5011974;28;20072;-69
2023/10/21 12:51:21;;;;;;;4.50;1.58;;;14.10;99.90;;;;;;5012106;28;20042;-68
2023/10/21 12:53:47;;;;;;;3.88;1.40;;;14.10;99.90;;;;;;5011008;28;20048;-69
2023/10/21 12:56:13;;;;;;;3.72;1.48;;;14.20;99.90;;;;;;5022498;28;20056;-68
2023/10/21 12:58:40;;;;;;;3.78;1.55;;;14.30;99.90;;;;;;5029693;28;20048;-65
2023/10/21 13:01:10;;;;;;;5.35;1.73;;;14.10;99.90;;;;;;4994347;28;20584;-65
2023/10/21 13:03:37;;;;;;;4.10;2.05;;;14.20;99.90;;;;;;5003667;28;20461;-66
2023/10/21 13:06:05;;;;;;;4.45;2.25;;;14.10;99.90;;;;;;5030904;28;20049;-66
2023/10/21 13:08:32;;;;;;;4.95;1.60;;;14.10;99.90;;;;;;5029838;28;20037;-66
2023/10/21 13:10:58;;;;;;;5.07;1.65;;;14.10;99.90;;;;;;5030858;28;20076;-65
2023/10/21 13:13:24;;;;;;;3.83;1.60;;;14.10;99.90;;;;;;5015002;28;20079;-65
2023/10/21 13:15:50;;;;;;;5.00;1.80;;;14.00;99.90;;;;;;5030748;28;20374;-66